sensor_id;sensor_type;location;lat;lon;timestamp;P1;durP1;ratioP1;P2;durP2;ratioP2
16075;SDS011;8142;48.242;11.644;2022-10-16T00:01:16;3.50;;;2.00;;
16075;SDS011;8142;48.242;11.644;2022-10-16T00:03:43;2.60;;;2.10;;
16075;SDS011;8142;48.242;11.644;2022-10-16T00:06:10;2.10;;;1.90;;
16075;SDS011;8142;48.242;11.644;2022-10-16T00:08:37;2.03;;;1.83;;
16075;SDS011;8142;48.242;11.644;2022-10-16T00:11:04;1.80;;;1.70;;
16075;SDS011;8142;48.242;11.644;2022-10-16T00:13:33;3.80;;;1.93;;
16075;SDS011;8142;48.242;11.644;2022-10-16T00:16:00;3.10;;;1.90;;
16075;SDS011;8142;48.242;11.644;2022-10-16T00:18:27;3.07;;;1.90;;
16075;SDS011;8142;48.242;11.644;2022-10-16T00:20:53;2.77;;;1.87;;
16075;SDS011;8142;48.242;11.644;2022-10-16T00:23:20;3.43;;;1.80;;
16075;SDS011;8142;48.242;11.644;2022-10-16T00:25:54;1.80;;;1.70;;
16075;SDS011;8142;48.242;11.644;2022-10-16T00:28:21;3.80;;;1.97;;
16075;SDS011;8142;48.242;11.644;2022-10-16T00:30:48;2.23;;;1.70;;
16075;SDS011;8142;48.242;11.644;2022-10-16T00:33:13;2.60;;;2.03;;
16075;SDS011;8142;48.242;11.644;2022-10-16T00:35:39;5.37;;;1.90;;
16075;SDS011;8142;48.242;11.644;2022-10-16T00:38:05;2.00;;;1.80;;
16075;SDS011;8142;48.242;11.644;2022-10-16T00:40:31;2.23;;;1.93;;
16075;SDS011;8142;48.242;11.644;2022-10-16T00:42:57;4.17;;;2.00;;
16075;SDS011;8142;48.242;11.644;2022-10-16T00:45:23;3.47;;;1.80;;
16075;SDS011;8142;48.242;11.644;2022-10-16T00:47:49;2.33;;;1.90;;
16075;SDS011;8142;48.242;11.644;2022-10-16T00:52:51;2.73;;;1.70;;
16075;SDS011;8142;48.242;11.644;2022-10-16T00:55:19;3.03;;;1.70;;
16075;SDS011;8142;48.242;11.644;2022-10-16T00:57:45;2.87;;;1.70;;
16075;SDS011;8142;48.242;11.644;2022-10-16T01:00:14;1.80;;;1.70;;
16075;SDS011;8142;48.242;11.644;2022-10-16T01:02:42;3.33;;;1.80;;
16075;SDS011;8142;48.242;11.644;2022-10-16T01:05:08;3.77;;;1.77;;
16075;SDS011;8142;48.242;11.644;2022-10-16T01:07:45;1.60;;;1.50;;
16075;SDS011;8142;48.242;11.644;2022-10-16T01:13:07;4.33;;;1.63;;
16075;SDS011;8142;48.242;11.644;2022-10-16T01:15:55;2.27;;;1.73;;
16075;SDS011;8142;48.242;11.644;2022-10-16T01:21:08;2.40;;;1.67;;
16075;SDS011;8142;48.242;11.644;2022-10-16T01:26:30;5.20;;;1.73;;
16075;SDS011;8142;48.242;11.644;2022-10-16T01:29:19;2.00;;;1.70;;
16075;SDS011;8142;48.242;11.644;2022-10-16T01:31:51;2.60;;;1.67;;
16075;SDS011;8142;48.242;11.644;2022-10-16T01:34:25;2.77;;;1.70;;
16075;SDS011;8142;48.242;11.644;2022-10-16T01:37:09;2.17;;;1.50;;
16075;SDS011;8142;48.242;11.644;2022-10-16T01:39:39;2.60;;;1.53;;
16075;SDS011;8142;48.242;11.644;2022-10-16T01:42:13;3.50;;;1.50;;
16075;SDS011;8142;48.242;11.644;2022-10-16T01:44:42;2.70;;;1.50;;
16075;SDS011;8142;48.242;11.644;2022-10-16T01:47:10;3.03;;;1.50;;
16075;SDS011;8142;48.242;11.644;2022-10-16T01:49:39;3.43;;;1.70;;
16075;SDS011;8142;48.242;11.644;2022-10-16T01:52:09;4.37;;;1.53;;
16075;SDS011;8142;48.242;11.644;2022-10-16T01:54:39;4.60;;;1.50;;
16075;SDS011;8142;48.242;11.644;2022-10-16T01:57:08;3.23;;;1.60;;
16075;SDS011;8142;48.242;11.644;2022-10-16T01:59:40;1.63;;;1.50;;
16075;SDS011;8142;48.242;11.644;2022-10-16T02:02:10;3.30;;;1.70;;
16075;SDS011;8142;48.242;11.644;2022-10-16T02:04:42;2.33;;;1.40;;
16075;SDS011;8142;48.242;11.644;2022-10-16T02:07:11;3.93;;;1.87;;
16075;SDS011;8142;48.242;11.644;2022-10-16T02:09:37;2.53;;;1.60;;
16075;SDS011;8142;48.242;11.644;2022-10-16T02:15:01;1.73;;;1.47;;
16075;SDS011;8142;48.242;11.644;2022-10-16T02:17:27;4.27;;;1.50;;
16075;SDS011;8142;48.242;11.644;2022-10-16T02:19:54;2.67;;;1.60;;
16075;SDS011;8142;48.242;11.644;2022-10-16T02:22:34;2.27;;;1.50;;
16075;SDS011;8142;48.242;11.644;2022-10-16T02:25:08;2.67;;;1.50;;
16075;SDS011;8142;48.242;11.644;2022-10-16T02:27:52;1.77;;;1.37;;
16075;SDS011;8142;48.242;11.644;2022-10-16T02:30:36;2.53;;;1.30;;
16075;SDS011;8142;48.242;11.644;2022-10-16T02:33:07;2.13;;;1.40;;
16075;SDS011;8142;48.242;11.644;2022-10-16T02:35:35;3.53;;;1.60;;
16075;SDS011;8142;48.242;11.644;2022-10-16T02:38:02;2.43;;;1.43;;
16075;SDS011;8142;48.242;11.644;2022-10-16T02:40:29;2.30;;;1.50;;
16075;SDS011;8142;48.242;11.644;2022-10-16T02:42:55;1.67;;;1.50;;
16075;SDS011;8142;48.242;11.644;2022-10-16T02:45:21;2.07;;;1.60;;
16075;SDS011;8142;48.242;11.644;2022-10-16T02:47:48;1.67;;;1.23;;
16075;SDS011;8142;48.242;11.644;2022-10-16T02:50:14;1.83;;;1.67;;
16075;SDS011;8142;48.242;11.644;2022-10-16T02:52:41;1.73;;;1.40;;
16075;SDS011;8142;48.242;11.644;2022-10-16T02:55:07;3.03;;;1.40;;
16075;SDS011;8142;48.242;11.644;2022-10-16T02:57:33;2.40;;;1.30;;
16075;SDS011;8142;48.242;11.644;2022-10-16T02:59:59;2.20;;;1.27;;
16075;SDS011;8142;48.242;11.644;2022-10-16T03:02:24;1.70;;;1.50;;
16075;SDS011;8142;48.242;11.644;2022-10-16T03:04:50;2.30;;;1.47;;
16075;SDS011;8142;48.242;11.644;2022-10-16T03:07:16;1.40;;;1.30;;
16075;SDS011;8142;48.242;11.644;2022-10-16T03:09:42;2.53;;;1.20;;
16075;SDS011;8142;48.242;11.644;2022-10-16T03:12:08;1.60;;;1.50;;
16075;SDS011;8142;48.242;11.644;2022-10-16T03:14:34;3.10;;;1.30;;
16075;SDS011;8142;48.242;11.644;2022-10-16T03:16:59;1.50;;;1.40;;
16075;SDS011;8142;48.242;11.644;2022-10-16T03:19:25;1.97;;;1.57;;
16075;SDS011;8142;48.242;11.644;2022-10-16T03:21:51;1.97;;;1.60;;
16075;SDS011;8142;48.242;11.644;2022-10-16T03:24:17;1.90;;;1.47;;
16075;SDS011;8142;48.242;11.644;2022-10-16T03:26:42;3.67;;;1.40;;
16075;SDS011;8142;48.242;11.644;2022-10-16T03:29:08;2.20;;;1.60;;
16075;SDS011;8142;48.242;11.644;2022-10-16T03:31:34;1.30;;;1.20;;
16075;SDS011;8142;48.242;11.644;2022-10-16T03:34:00;2.50;;;1.30;;
16075;SDS011;8142;48.242;11.644;2022-10-16T03:36:26;1.83;;;1.57;;
16075;SDS011;8142;48.242;11.644;2022-10-16T03:38:51;3.23;;;1.33;;
16075;SDS011;8142;48.242;11.644;2022-10-16T03:41:17;2.37;;;1.20;;
16075;SDS011;8142;48.242;11.644;2022-10-16T03:43:43;1.40;;;1.30;;
16075;SDS011;8142;48.242;11.644;2022-10-16T03:46:09;1.30;;;1.20;;
16075;SDS011;8142;48.242;11.644;2022-10-16T03:48:35;3.63;;;1.40;;
16075;SDS011;8142;48.242;11.644;2022-10-16T03:51:01;3.20;;;1.40;;
16075;SDS011;8142;48.242;11.644;2022-10-16T03:53:27;1.80;;;1.30;;
16075;SDS011;8142;48.242;11.644;2022-10-16T03:55:53;1.63;;;1.50;;
16075;SDS011;8142;48.242;11.644;2022-10-16T03:58:19;2.10;;;1.40;;
16075;SDS011;8142;48.242;11.644;2022-10-16T04:00:45;2.70;;;1.40;;
16075;SDS011;8142;48.242;11.644;2022-10-16T04:03:12;1.60;;;1.30;;
16075;SDS011;8142;48.242;11.644;2022-10-16T04:05:39;1.50;;;1.30;;
16075;SDS011;8142;48.242;11.644;2022-10-16T04:08:05;1.83;;;1.40;;
16075;SDS011;8142;48.242;11.644;2022-10-16T04:10:31;1.60;;;1.50;;
16075;SDS011;8142;48.242;11.644;2022-10-16T04:12:57;2.53;;;1.43;;
16075;SDS011;8142;48.242;11.644;2022-10-16T04:15:23;2.20;;;1.40;;
16075;SDS011;8142;48.242;11.644;2022-10-16T04:17:49;2.00;;;1.50;;
16075;SDS011;8142;48.242;11.644;2022-10-16T04:20:15;1.60;;;1.50;;
16075;SDS011;8142;48.242;11.644;2022-10-16T04:22:42;1.93;;;1.40;;
16075;SDS011;8142;48.242;11.644;2022-10-16T04:25:08;1.57;;;1.30;;
16075;SDS011;8142;48.242;11.644;2022-10-16T04:27:34;1.70;;;1.60;;
16075;SDS011;8142;48.242;11.644;2022-10-16T04:29:59;1.47;;;1.30;;
16075;SDS011;8142;48.242;11.644;2022-10-16T04:32:26;2.00;;;1.37;;
16075;SDS011;8142;48.242;11.644;2022-10-16T04:34:52;2.07;;;1.60;;
16075;SDS011;8142;48.242;11.644;2022-10-16T04:37:18;2.33;;;1.53;;
16075;SDS011;8142;48.242;11.644;2022-10-16T04:39:48;5.07;;;1.60;;
16075;SDS011;8142;48.242;11.644;2022-10-16T04:42:14;1.60;;;1.50;;
16075;SDS011;8142;48.242;11.644;2022-10-16T04:44:39;1.70;;;1.60;;
16075;SDS011;8142;48.242;11.644;2022-10-16T04:47:05;1.60;;;1.50;;
16075;SDS011;8142;48.242;11.644;2022-10-16T04:49:31;2.77;;;1.60;;
16075;SDS011;8142;48.242;11.644;2022-10-16T04:51:57;1.70;;;1.60;;
16075;SDS011;8142;48.242;11.644;2022-10-16T04:54:23;1.87;;;1.53;;
16075;SDS011;8142;48.242;11.644;2022-10-16T04:56:49;1.90;;;1.70;;
16075;SDS011;8142;48.242;11.644;2022-10-16T04:59:17;2.63;;;1.70;;
16075;SDS011;8142;48.242;11.644;2022-10-16T05:01:44;2.83;;;1.87;;
16075;SDS011;8142;48.242;11.644;2022-10-16T05:04:10;1.70;;;1.60;;
16075;SDS011;8142;48.242;11.644;2022-10-16T05:06:37;1.60;;;1.50;;
16075;SDS011;8142;48.242;11.644;2022-10-16T05:09:04;1.57;;;1.43;;
16075;SDS011;8142;48.242;11.644;2022-10-16T05:11:31;4.53;;;1.60;;
16075;SDS011;8142;48.242;11.644;2022-10-16T05:13:57;2.93;;;1.80;;
16075;SDS011;8142;48.242;11.644;2022-10-16T05:16:23;2.80;;;1.67;;
16075;SDS011;8142;48.242;11.644;2022-10-16T05:18:49;2.43;;;1.50;;
16075;SDS011;8142;48.242;11.644;2022-10-16T05:21:16;1.50;;;1.40;;
16075;SDS011;8142;48.242;11.644;2022-10-16T05:23:42;3.50;;;1.40;;
16075;SDS011;8142;48.242;11.644;2022-10-16T05:26:07;2.27;;;1.67;;
16075;SDS011;8142;48.242;11.644;2022-10-16T05:28:33;3.77;;;1.50;;
16075;SDS011;8142;48.242;11.644;2022-10-16T05:31:03;1.73;;;1.63;;
16075;SDS011;8142;48.242;11.644;2022-10-16T05:33:31;1.57;;;1.47;;
16075;SDS011;8142;48.242;11.644;2022-10-16T05:35:57;3.40;;;1.40;;
16075;SDS011;8142;48.242;11.644;2022-10-16T05:38:28;6.90;;;1.50;;
16075;SDS011;8142;48.242;11.644;2022-10-16T05:40:54;2.20;;;1.47;;
16075;SDS011;8142;48.242;11.644;2022-10-16T05:43:19;2.07;;;1.50;;
16075;SDS011;8142;48.242;11.644;2022-10-16T05:45:53;2.47;;;1.43;;
16075;SDS011;8142;48.242;11.644;2022-10-16T05:48:20;2.33;;;1.70;;
16075;SDS011;8142;48.242;11.644;2022-10-16T05:50:45;5.77;;;1.60;;
16075;SDS011;8142;48.242;11.644;2022-10-16T05:53:11;2.57;;;1.57;;
16075;SDS011;8142;48.242;11.644;2022-10-16T05:55:37;1.93;;;1.40;;
16075;SDS011;8142;48.242;11.644;2022-10-16T05:58:03;1.63;;;1.53;;
16075;SDS011;8142;48.242;11.644;2022-10-16T06:00:29;2.77;;;1.60;;
16075;SDS011;8142;48.242;11.644;2022-10-16T06:02:54;3.00;;;1.60;;
16075;SDS011;8142;48.242;11.644;2022-10-16T06:05:20;1.97;;;1.40;;
16075;SDS011;8142;48.242;11.644;2022-10-16T06:07:46;4.33;;;1.40;;
16075;SDS011;8142;48.242;11.644;2022-10-16T06:10:12;1.40;;;1.30;;
16075;SDS011;8142;48.242;11.644;2022-10-16T06:12:38;2.20;;;1.53;;
16075;SDS011;8142;48.242;11.644;2022-10-16T06:15:04;2.27;;;1.37;;
16075;SDS011;8142;48.242;11.644;2022-10-16T06:17:30;2.57;;;1.40;;
16075;SDS011;8142;48.242;11.644;2022-10-16T06:19:56;1.60;;;1.50;;
16075;SDS011;8142;48.242;11.644;2022-10-16T06:22:22;2.03;;;1.57;;
16075;SDS011;8142;48.242;11.644;2022-10-16T06:24:48;2.63;;;1.50;;
16075;SDS011;8142;48.242;11.644;2022-10-16T06:27:15;2.03;;;1.50;;
16075;SDS011;8142;48.242;11.644;2022-10-16T06:29:40;2.03;;;1.70;;
16075;SDS011;8142;48.242;11.644;2022-10-16T06:32:08;2.73;;;1.70;;
16075;SDS011;8142;48.242;11.644;2022-10-16T06:34:35;1.83;;;1.60;;
16075;SDS011;8142;48.242;11.644;2022-10-16T06:37:00;1.80;;;1.50;;
16075;SDS011;8142;48.242;11.644;2022-10-16T06:39:26;2.50;;;1.70;;
16075;SDS011;8142;48.242;11.644;2022-10-16T06:41:52;1.60;;;1.50;;
16075;SDS011;8142;48.242;11.644;2022-10-16T06:44:18;3.03;;;1.70;;
16075;SDS011;8142;48.242;11.644;2022-10-16T06:46:44;2.83;;;1.67;;
16075;SDS011;8142;48.242;11.644;2022-10-16T06:49:09;3.10;;;1.80;;
16075;SDS011;8142;48.242;11.644;2022-10-16T06:51:35;3.00;;;1.90;;
16075;SDS011;8142;48.242;11.644;2022-10-16T06:54:06;1.60;;;1.50;;
16075;SDS011;8142;48.242;11.644;2022-10-16T06:56:32;1.50;;;1.40;;
16075;SDS011;8142;48.242;11.644;2022-10-16T06:58:58;1.77;;;1.67;;
16075;SDS011;8142;48.242;11.644;2022-10-16T07:01:24;2.00;;;1.63;;
16075;SDS011;8142;48.242;11.644;2022-10-16T07:03:51;2.17;;;1.60;;
16075;SDS011;8142;48.242;11.644;2022-10-16T07:06:18;2.50;;;1.53;;
16075;SDS011;8142;48.242;11.644;2022-10-16T07:08:45;2.10;;;1.53;;
16075;SDS011;8142;48.242;11.644;2022-10-16T07:11:16;4.10;;;1.70;;
16075;SDS011;8142;48.242;11.644;2022-10-16T07:13:47;2.40;;;1.70;;
16075;SDS011;8142;48.242;11.644;2022-10-16T07:16:19;3.27;;;1.73;;
16075;SDS011;8142;48.242;11.644;2022-10-16T07:18:47;2.30;;;1.63;;
16075;SDS011;8142;48.242;11.644;2022-10-16T07:21:19;1.90;;;1.70;;
16075;SDS011;8142;48.242;11.644;2022-10-16T07:23:52;4.37;;;2.00;;
16075;SDS011;8142;48.242;11.644;2022-10-16T07:26:19;2.77;;;1.90;;
16075;SDS011;8142;48.242;11.644;2022-10-16T07:28:46;3.17;;;1.80;;
16075;SDS011;8142;48.242;11.644;2022-10-16T07:31:12;2.37;;;1.80;;
16075;SDS011;8142;48.242;11.644;2022-10-16T07:33:39;3.17;;;1.50;;
16075;SDS011;8142;48.242;11.644;2022-10-16T07:36:08;5.77;;;2.43;;
16075;SDS011;8142;48.242;11.644;2022-10-16T07:38:34;2.30;;;2.10;;
16075;SDS011;8142;48.242;11.644;2022-10-16T07:41:01;3.20;;;2.10;;
16075;SDS011;8142;48.242;11.644;2022-10-16T07:43:28;3.93;;;2.10;;
16075;SDS011;8142;48.242;11.644;2022-10-16T07:45:55;2.53;;;1.80;;
16075;SDS011;8142;48.242;11.644;2022-10-16T07:48:21;3.00;;;1.97;;
16075;SDS011;8142;48.242;11.644;2022-10-16T07:50:48;2.40;;;1.70;;
16075;SDS011;8142;48.242;11.644;2022-10-16T07:53:14;2.13;;;1.60;;
16075;SDS011;8142;48.242;11.644;2022-10-16T07:55:41;1.73;;;1.63;;
16075;SDS011;8142;48.242;11.644;2022-10-16T07:58:07;3.40;;;2.00;;
16075;SDS011;8142;48.242;11.644;2022-10-16T08:00:33;2.10;;;1.90;;
16075;SDS011;8142;48.242;11.644;2022-10-16T08:02:59;3.10;;;2.00;;
16075;SDS011;8142;48.242;11.644;2022-10-16T08:05:28;2.17;;;1.83;;
16075;SDS011;8142;48.242;11.644;2022-10-16T08:07:56;2.50;;;1.83;;
16075;SDS011;8142;48.242;11.644;2022-10-16T08:10:23;3.03;;;2.10;;
16075;SDS011;8142;48.242;11.644;2022-10-16T08:12:51;2.87;;;2.10;;
16075;SDS011;8142;48.242;11.644;2022-10-16T08:15:17;3.93;;;2.00;;
16075;SDS011;8142;48.242;11.644;2022-10-16T08:17:44;2.63;;;2.03;;
16075;SDS011;8142;48.242;11.644;2022-10-16T08:20:10;1.90;;;1.80;;
16075;SDS011;8142;48.242;11.644;2022-10-16T08:22:36;3.03;;;2.10;;
16075;SDS011;8142;48.242;11.644;2022-10-16T08:25:02;3.10;;;2.10;;
16075;SDS011;8142;48.242;11.644;2022-10-16T08:27:31;4.73;;;1.80;;
16075;SDS011;8142;48.242;11.644;2022-10-16T08:29:58;2.10;;;1.83;;
16075;SDS011;8142;48.242;11.644;2022-10-16T08:32:24;2.73;;;2.20;;
16075;SDS011;8142;48.242;11.644;2022-10-16T08:34:50;5.83;;;2.00;;
16075;SDS011;8142;48.242;11.644;2022-10-16T08:37:15;2.50;;;1.90;;
16075;SDS011;8142;48.242;11.644;2022-10-16T08:39:41;2.60;;;2.10;;
16075;SDS011;8142;48.242;11.644;2022-10-16T08:50:42;5.73;;;2.23;;
16075;SDS011;8142;48.242;11.644;2022-10-16T08:53:14;3.70;;;2.37;;
16075;SDS011;8142;48.242;11.644;2022-10-16T08:55:53;3.17;;;2.20;;
16075;SDS011;8142;48.242;11.644;2022-10-16T08:58:20;2.97;;;2.50;;
16075;SDS011;8142;48.242;11.644;2022-10-16T09:00:55;2.93;;;2.10;;
16075;SDS011;8142;48.242;11.644;2022-10-16T09:11:57;3.07;;;2.00;;
16075;SDS011;8142;48.242;11.644;2022-10-16T09:14:40;2.50;;;2.17;;
16075;SDS011;8142;48.242;11.644;2022-10-16T09:17:24;3.73;;;2.03;;
16075;SDS011;8142;48.242;11.644;2022-10-16T09:22:55;2.00;;;1.90;;
16075;SDS011;8142;48.242;11.644;2022-10-16T09:25:35;2.07;;;1.83;;
16075;SDS011;8142;48.242;11.644;2022-10-16T09:28:04;2.80;;;2.17;;
16075;SDS011;8142;48.242;11.644;2022-10-16T09:30:29;5.90;;;2.13;;
16075;SDS011;8142;48.242;11.644;2022-10-16T09:32:57;3.37;;;2.07;;
16075;SDS011;8142;48.242;11.644;2022-10-16T09:35:35;2.40;;;2.00;;
16075;SDS011;8142;48.242;11.644;2022-10-16T09:40:55;2.60;;;1.90;;
16075;SDS011;8142;48.242;11.644;2022-10-16T09:46:21;2.10;;;1.77;;
16075;SDS011;8142;48.242;11.644;2022-10-16T09:48:48;1.97;;;1.80;;
16075;SDS011;8142;48.242;11.644;2022-10-16T09:51:20;1.67;;;1.57;;
16075;SDS011;8142;48.242;11.644;2022-10-16T09:53:53;2.00;;;1.80;;
16075;SDS011;8142;48.242;11.644;2022-10-16T09:56:25;3.50;;;1.70;;
16075;SDS011;8142;48.242;11.644;2022-10-16T09:59:01;2.17;;;1.97;;
16075;SDS011;8142;48.242;11.644;2022-10-16T10:01:36;2.00;;;1.60;;
16075;SDS011;8142;48.242;11.644;2022-10-16T10:04:05;2.10;;;1.63;;
16075;SDS011;8142;48.242;11.644;2022-10-16T10:06:45;2.07;;;1.60;;
16075;SDS011;8142;48.242;11.644;2022-10-16T10:11:51;2.93;;;1.70;;
16075;SDS011;8142;48.242;11.644;2022-10-16T10:16:53;1.50;;;1.40;;
16075;SDS011;8142;48.242;11.644;2022-10-16T10:19:29;1.80;;;1.70;;
16075;SDS011;8142;48.242;11.644;2022-10-16T10:22:11;2.13;;;1.50;;
16075;SDS011;8142;48.242;11.644;2022-10-16T10:24:54;2.20;;;1.70;;
16075;SDS011;8142;48.242;11.644;2022-10-16T10:27:58;1.50;;;1.40;;
16075;SDS011;8142;48.242;11.644;2022-10-16T10:38:46;2.03;;;1.67;;
16075;SDS011;8142;48.242;11.644;2022-10-16T10:44:11;3.33;;;1.60;;
16075;SDS011;8142;48.242;11.644;2022-10-16T10:50:00;1.50;;;1.40;;
16075;SDS011;8142;48.242;11.644;2022-10-16T10:52:34;1.83;;;1.73;;
16075;SDS011;8142;48.242;11.644;2022-10-16T10:55:16;1.83;;;1.73;;
16075;SDS011;8142;48.242;11.644;2022-10-16T11:05:59;1.60;;;1.50;;
16075;SDS011;8142;48.242;11.644;2022-10-16T11:08:36;2.97;;;1.70;;
16075;SDS011;8142;48.242;11.644;2022-10-16T11:13:58;1.77;;;1.57;;
16075;SDS011;8142;48.242;11.644;2022-10-16T11:16:29;1.60;;;1.50;;
16075;SDS011;8142;48.242;11.644;2022-10-16T11:19:05;1.30;;;1.20;;
16075;SDS011;8142;48.242;11.644;2022-10-16T11:21:47;1.30;;;1.20;;
16075;SDS011;8142;48.242;11.644;2022-10-16T11:24:23;2.37;;;1.47;;
16075;SDS011;8142;48.242;11.644;2022-10-16T11:26:57;1.23;;;1.10;;
16075;SDS011;8142;48.242;11.644;2022-10-16T11:29:30;1.03;;;1.03;;
16075;SDS011;8142;48.242;11.644;2022-10-16T11:31:59;0.97;;;0.97;;
16075;SDS011;8142;48.242;11.644;2022-10-16T11:34:33;1.20;;;1.10;;
16075;SDS011;8142;48.242;11.644;2022-10-16T11:40:11;1.00;;;1.00;;
16075;SDS011;8142;48.242;11.644;2022-10-16T11:42:46;1.20;;;1.10;;
16075;SDS011;8142;48.242;11.644;2022-10-16T11:45:28;1.13;;;1.13;;
16075;SDS011;8142;48.242;11.644;2022-10-16T11:48:01;2.10;;;0.70;;
16075;SDS011;8142;48.242;11.644;2022-10-16T11:50:56;1.20;;;1.00;;
16075;SDS011;8142;48.242;11.644;2022-10-16T11:56:06;1.50;;;0.80;;
16075;SDS011;8142;48.242;11.644;2022-10-16T11:58:45;0.83;;;0.80;;
16075;SDS011;8142;48.242;11.644;2022-10-16T12:01:22;1.77;;;1.00;;
16075;SDS011;8142;48.242;11.644;2022-10-16T12:03:59;2.20;;;1.00;;
16075;SDS011;8142;48.242;11.644;2022-10-16T12:06:34;1.13;;;1.03;;
16075;SDS011;8142;48.242;11.644;2022-10-16T12:09:15;1.33;;;1.07;;
16075;SDS011;8142;48.242;11.644;2022-10-16T12:11:44;1.00;;;1.00;;
16075;SDS011;8142;48.242;11.644;2022-10-16T12:16:39;0.90;;;0.80;;
16075;SDS011;8142;48.242;11.644;2022-10-16T12:19:18;1.20;;;1.10;;
16075;SDS011;8142;48.242;11.644;2022-10-16T12:21:45;1.10;;;1.10;;
16075;SDS011;8142;48.242;11.644;2022-10-16T12:24:21;1.30;;;1.20;;
16075;SDS011;8142;48.242;11.644;2022-10-16T12:26:53;1.63;;;1.13;;
16075;SDS011;8142;48.242;11.644;2022-10-16T12:29:23;0.90;;;0.90;;
16075;SDS011;8142;48.242;11.644;2022-10-16T12:34:53;0.87;;;0.80;;
16075;SDS011;8142;48.242;11.644;2022-10-16T12:37:20;3.23;;;1.00;;
16075;SDS011;8142;48.242;11.644;2022-10-16T12:39:49;1.00;;;1.00;;
16075;SDS011;8142;48.242;11.644;2022-10-16T12:44:56;0.90;;;0.90;;
16075;SDS011;8142;48.242;11.644;2022-10-16T12:49:57;0.87;;;0.80;;
16075;SDS011;8142;48.242;11.644;2022-10-16T12:52:24;1.77;;;1.00;;
16075;SDS011;8142;48.242;11.644;2022-10-16T12:54:57;1.50;;;0.90;;
16075;SDS011;8142;48.242;11.644;2022-10-16T13:03:07;1.00;;;1.00;;
16075;SDS011;8142;48.242;11.644;2022-10-16T13:06:20;1.10;;;1.10;;
16075;SDS011;8142;48.242;11.644;2022-10-16T13:08:58;1.13;;;1.00;;
16075;SDS011;8142;48.242;11.644;2022-10-16T13:14:25;0.73;;;0.73;;
16075;SDS011;8142;48.242;11.644;2022-10-16T13:19:43;1.70;;;1.17;;
16075;SDS011;8142;48.242;11.644;2022-10-16T13:22:21;1.40;;;1.00;;
16075;SDS011;8142;48.242;11.644;2022-10-16T13:27:48;1.37;;;1.10;;
16075;SDS011;8142;48.242;11.644;2022-10-16T13:30:21;1.37;;;1.20;;
16075;SDS011;8142;48.242;11.644;2022-10-16T13:32:58;1.00;;;0.90;;
16075;SDS011;8142;48.242;11.644;2022-10-16T13:35:30;0.90;;;0.90;;
16075;SDS011;8142;48.242;11.644;2022-10-16T13:38:05;1.23;;;0.90;;
16075;SDS011;8142;48.242;11.644;2022-10-16T13:40:49;1.10;;;1.03;;
16075;SDS011;8142;48.242;11.644;2022-10-16T13:43:27;1.13;;;1.00;;
16075;SDS011;8142;48.242;11.644;2022-10-16T13:45:54;0.97;;;0.90;;
16075;SDS011;8142;48.242;11.644;2022-10-16T13:48:22;1.23;;;1.00;;
16075;SDS011;8142;48.242;11.644;2022-10-16T13:50:58;1.60;;;0.90;;
16075;SDS011;8142;48.242;11.644;2022-10-16T13:53:32;2.67;;;0.83;;
16075;SDS011;8142;48.242;11.644;2022-10-16T13:55:59;1.20;;;1.10;;
16075;SDS011;8142;48.242;11.644;2022-10-16T13:58:27;1.80;;;0.93;;
16075;SDS011;8142;48.242;11.644;2022-10-16T14:00:57;1.20;;;1.10;;
16075;SDS011;8142;48.242;11.644;2022-10-16T14:03:25;1.10;;;1.00;;
16075;SDS011;8142;48.242;11.644;2022-10-16T14:05:53;1.10;;;0.93;;
16075;SDS011;8142;48.242;11.644;2022-10-16T14:08:28;1.33;;;1.10;;
16075;SDS011;8142;48.242;11.644;2022-10-16T14:10:59;0.93;;;0.93;;
16075;SDS011;8142;48.242;11.644;2022-10-16T14:13:30;0.97;;;0.97;;
16075;SDS011;8142;48.242;11.644;2022-10-16T14:15:57;1.40;;;0.90;;
16075;SDS011;8142;48.242;11.644;2022-10-16T14:18:30;1.40;;;1.07;;
16075;SDS011;8142;48.242;11.644;2022-10-16T14:21:02;1.37;;;1.20;;
16075;SDS011;8142;48.242;11.644;2022-10-16T14:23:31;1.17;;;1.13;;
16075;SDS011;8142;48.242;11.644;2022-10-16T14:28:34;1.20;;;1.10;;
16075;SDS011;8142;48.242;11.644;2022-10-16T14:31:02;1.73;;;0.97;;
16075;SDS011;8142;48.242;11.644;2022-10-16T14:33:57;1.63;;;1.00;;
16075;SDS011;8142;48.242;11.644;2022-10-16T14:36:24;1.00;;;1.00;;
16075;SDS011;8142;48.242;11.644;2022-10-16T14:38:57;2.40;;;1.10;;
16075;SDS011;8142;48.242;11.644;2022-10-16T14:41:43;1.33;;;1.13;;
16075;SDS011;8142;48.242;11.644;2022-10-16T14:44:12;1.40;;;0.90;;
16075;SDS011;8142;48.242;11.644;2022-10-16T14:46:39;1.40;;;1.00;;
16075;SDS011;8142;48.242;11.644;2022-10-16T14:51:39;1.00;;;1.00;;
16075;SDS011;8142;48.242;11.644;2022-10-16T14:54:10;1.87;;;0.90;;
16075;SDS011;8142;48.242;11.644;2022-10-16T14:56:47;1.27;;;1.00;;
16075;SDS011;8142;48.242;11.644;2022-10-16T15:01:46;1.10;;;1.10;;
16075;SDS011;8142;48.242;11.644;2022-10-16T15:04:13;1.23;;;1.13;;
16075;SDS011;8142;48.242;11.644;2022-10-16T15:06:39;1.17;;;1.07;;
16075;SDS011;8142;48.242;11.644;2022-10-16T15:09:06;0.90;;;0.90;;
16075;SDS011;8142;48.242;11.644;2022-10-16T15:11:32;1.17;;;1.07;;
16075;SDS011;8142;48.242;11.644;2022-10-16T15:13:58;1.43;;;1.33;;
16075;SDS011;8142;48.242;11.644;2022-10-16T15:16:24;1.53;;;1.30;;
16075;SDS011;8142;48.242;11.644;2022-10-16T15:18:50;1.37;;;1.27;;
16075;SDS011;8142;48.242;11.644;2022-10-16T15:21:24;1.60;;;1.30;;
16075;SDS011;8142;48.242;11.644;2022-10-16T15:23:50;2.30;;;1.20;;
16075;SDS011;8142;48.242;11.644;2022-10-16T15:26:16;1.73;;;1.20;;
16075;SDS011;8142;48.242;11.644;2022-10-16T15:28:42;2.00;;;1.10;;
16075;SDS011;8142;48.242;11.644;2022-10-16T15:31:07;1.63;;;1.00;;
16075;SDS011;8142;48.242;11.644;2022-10-16T15:33:33;1.63;;;1.20;;
16075;SDS011;8142;48.242;11.644;2022-10-16T15:36:00;2.13;;;1.23;;
16075;SDS011;8142;48.242;11.644;2022-10-16T15:38:27;1.90;;;1.20;;
16075;SDS011;8142;48.242;11.644;2022-10-16T15:40:54;2.40;;;1.33;;
16075;SDS011;8142;48.242;11.644;2022-10-16T15:43:20;2.20;;;1.43;;
16075;SDS011;8142;48.242;11.644;2022-10-16T15:45:58;1.87;;;1.60;;
16075;SDS011;8142;48.242;11.644;2022-10-16T15:48:29;1.80;;;1.70;;
16075;SDS011;8142;48.242;11.644;2022-10-16T15:50:56;1.70;;;1.60;;
16075;SDS011;8142;48.242;11.644;2022-10-16T15:53:22;1.67;;;1.57;;
16075;SDS011;8142;48.242;11.644;2022-10-16T15:55:48;1.33;;;1.23;;
16075;SDS011;8142;48.242;11.644;2022-10-16T15:58:14;3.33;;;1.60;;
16075;SDS011;8142;48.242;11.644;2022-10-16T16:00:40;1.50;;;1.40;;
16075;SDS011;8142;48.242;11.644;2022-10-16T16:03:06;1.90;;;1.47;;
16075;SDS011;8142;48.242;11.644;2022-10-16T16:05:32;3.00;;;2.10;;
16075;SDS011;8142;48.242;11.644;2022-10-16T16:07:58;4.53;;;2.27;;
16075;SDS011;8142;48.242;11.644;2022-10-16T16:10:24;1.70;;;1.60;;
16075;SDS011;8142;48.242;11.644;2022-10-16T16:12:50;2.00;;;1.50;;
16075;SDS011;8142;48.242;11.644;2022-10-16T16:15:21;2.23;;;1.30;;
16075;SDS011;8142;48.242;11.644;2022-10-16T16:17:47;1.90;;;1.13;;
16075;SDS011;8142;48.242;11.644;2022-10-16T16:20:14;1.40;;;1.30;;
16075;SDS011;8142;48.242;11.644;2022-10-16T16:22:40;1.93;;;1.40;;
16075;SDS011;8142;48.242;11.644;2022-10-16T16:25:06;2.10;;;1.30;;
16075;SDS011;8142;48.242;11.644;2022-10-16T16:27:32;1.80;;;1.47;;
16075;SDS011;8142;48.242;11.644;2022-10-16T16:30:00;3.57;;;1.50;;
16075;SDS011;8142;48.242;11.644;2022-10-16T16:32:28;1.50;;;1.40;;
16075;SDS011;8142;48.242;11.644;2022-10-16T16:34:54;1.33;;;1.23;;
16075;SDS011;8142;48.242;11.644;2022-10-16T16:37:20;2.03;;;1.60;;
16075;SDS011;8142;48.242;11.644;2022-10-16T16:39:46;2.57;;;1.50;;
16075;SDS011;8142;48.242;11.644;2022-10-16T16:42:12;1.63;;;1.43;;
16075;SDS011;8142;48.242;11.644;2022-10-16T16:44:37;3.30;;;1.70;;
16075;SDS011;8142;48.242;11.644;2022-10-16T16:47:04;3.23;;;1.63;;
16075;SDS011;8142;48.242;11.644;2022-10-16T16:49:31;2.13;;;1.87;;